sensor_id;sensor_type;location;lat;lon;timestamp;P1;durP1;ratioP1;P2;durP2;ratioP2
39190;SDS011;24916;51.676;6.614;2023-04-19T00:01:07;15.75;;;10.60;;
39190;SDS011;24916;51.676;6.614;2023-04-19T00:03:32;13.05;;;8.63;;
39190;SDS011;24916;51.676;6.614;2023-04-19T00:05:58;12.32;;;10.38;;
39190;SDS011;24916;51.676;6.614;2023-04-19T00:08:23;13.80;;;8.60;;
39190;SDS011;24916;51.676;6.614;2023-04-19T00:10:48;14.27;;;9.27;;
39190;SDS011;24916;51.676;6.614;2023-04-19T00:13:14;12.13;;;9.57;;
39190;SDS011;24916;51.676;6.614;2023-04-19T00:15:39;14.05;;;10.05;;
39190;SDS011;24916;51.676;6.614;2023-04-19T00:18:04;12.35;;;9.50;;
39190;SDS011;24916;51.676;6.614;2023-04-19T00:20:30;13.20;;;9.73;;
39190;SDS011;24916;51.676;6.614;2023-04-19T00:22:55;14.05;;;9.60;;
39190;SDS011;24916;51.676;6.614;2023-04-19T00:25:22;11.60;;;9.82;;
39190;SDS011;24916;51.676;6.614;2023-04-19T00:27:47;18.83;;;9.73;;
39190;SDS011;24916;51.676;6.614;2023-04-19T00:30:12;11.25;;;9.32;;
39190;SDS011;24916;51.676;6.614;2023-04-19T00:32:38;12.50;;;9.20;;
39190;SDS011;24916;51.676;6.614;2023-04-19T00:35:03;23.05;;;10.90;;
39190;SDS011;24916;51.676;6.614;2023-04-19T00:37:28;14.55;;;9.50;;
39190;SDS011;24916;51.676;6.614;2023-04-19T00:39:53;12.23;;;9.95;;
39190;SDS011;24916;51.676;6.614;2023-04-19T00:42:19;13.13;;;9.40;;
39190;SDS011;24916;51.676;6.614;2023-04-19T00:44:44;13.45;;;9.57;;
39190;SDS011;24916;51.676;6.614;2023-04-19T00:47:09;15.30;;;10.18;;
39190;SDS011;24916;51.676;6.614;2023-04-19T00:49:34;13.07;;;9.13;;
39190;SDS011;24916;51.676;6.614;2023-04-19T00:52:00;11.70;;;9.65;;
39190;SDS011;24916;51.676;6.614;2023-04-19T00:54:25;14.27;;;9.75;;
39190;SDS011;24916;51.676;6.614;2023-04-19T00:56:50;12.10;;;9.35;;
39190;SDS011;24916;51.676;6.614;2023-04-19T00:59:15;12.00;;;9.35;;
39190;SDS011;24916;51.676;6.614;2023-04-19T01:01:41;16.77;;;10.85;;
39190;SDS011;24916;51.676;6.614;2023-04-19T01:04:06;10.75;;;9.65;;
39190;SDS011;24916;51.676;6.614;2023-04-19T01:06:33;11.57;;;9.35;;
39190;SDS011;24916;51.676;6.614;2023-04-19T01:08:58;12.40;;;9.27;;
39190;SDS011;24916;51.676;6.614;2023-04-19T01:11:24;17.60;;;10.52;;
39190;SDS011;24916;51.676;6.614;2023-04-19T01:13:49;11.23;;;9.27;;
39190;SDS011;24916;51.676;6.614;2023-04-19T01:16:14;12.80;;;9.27;;
39190;SDS011;24916;51.676;6.614;2023-04-19T01:18:40;16.75;;;10.25;;
39190;SDS011;24916;51.676;6.614;2023-04-19T01:21:06;15.10;;;10.00;;
39190;SDS011;24916;51.676;6.614;2023-04-19T01:23:31;13.70;;;10.27;;
39190;SDS011;24916;51.676;6.614;2023-04-19T01:25:57;13.45;;;9.70;;
39190;SDS011;24916;51.676;6.614;2023-04-19T01:28:22;13.05;;;10.05;;
39190;SDS011;24916;51.676;6.614;2023-04-19T01:30:47;12.93;;;9.30;;
39190;SDS011;24916;51.676;6.614;2023-04-19T01:33:15;14.05;;;10.35;;
39190;SDS011;24916;51.676;6.614;2023-04-19T01:35:40;12.13;;;10.10;;
39190;SDS011;24916;51.676;6.614;2023-04-19T01:38:06;11.80;;;9.98;;
39190;SDS011;24916;51.676;6.614;2023-04-19T01:40:31;15.38;;;10.15;;
39190;SDS011;24916;51.676;6.614;2023-04-19T01:42:56;16.77;;;10.75;;
39190;SDS011;24916;51.676;6.614;2023-04-19T01:45:22;13.15;;;9.88;;
39190;SDS011;24916;51.676;6.614;2023-04-19T01:47:47;15.65;;;9.90;;
39190;SDS011;24916;51.676;6.614;2023-04-19T01:50:12;14.23;;;9.82;;
39190;SDS011;24916;51.676;6.614;2023-04-19T01:52:37;15.38;;;9.82;;
39190;SDS011;24916;51.676;6.614;2023-04-19T01:55:03;11.07;;;9.23;;
39190;SDS011;24916;51.676;6.614;2023-04-19T01:57:28;10.70;;;9.43;;
39190;SDS011;24916;51.676;6.614;2023-04-19T01:59:53;11.65;;;9.30;;
39190;SDS011;24916;51.676;6.614;2023-04-19T02:02:18;11.32;;;9.45;;
39190;SDS011;24916;51.676;6.614;2023-04-19T02:04:44;17.20;;;10.27;;
39190;SDS011;24916;51.676;6.614;2023-04-19T02:07:09;13.05;;;8.75;;
39190;SDS011;24916;51.676;6.614;2023-04-19T02:09:35;13.18;;;9.25;;
39190;SDS011;24916;51.676;6.614;2023-04-19T02:12:00;11.70;;;9.35;;
39190;SDS011;24916;51.676;6.614;2023-04-19T02:14:26;10.52;;;8.57;;
39190;SDS011;24916;51.676;6.614;2023-04-19T02:16:51;10.20;;;8.73;;
39190;SDS011;24916;51.676;6.614;2023-04-19T02:19:16;10.82;;;8.55;;
39190;SDS011;24916;51.676;6.614;2023-04-19T02:21:42;11.25;;;7.75;;
39190;SDS011;24916;51.676;6.614;2023-04-19T02:24:07;10.68;;;8.20;;
39190;SDS011;24916;51.676;6.614;2023-04-19T02:26:32;11.60;;;8.25;;
39190;SDS011;24916;51.676;6.614;2023-04-19T02:28:57;10.85;;;7.75;;
39190;SDS011;24916;51.676;6.614;2023-04-19T02:31:22;9.77;;;6.50;;
39190;SDS011;24916;51.676;6.614;2023-04-19T02:33:48;9.25;;;6.72;;
39190;SDS011;24916;51.676;6.614;2023-04-19T02:36:13;8.68;;;6.22;;
39190;SDS011;24916;51.676;6.614;2023-04-19T02:38:38;10.00;;;6.60;;
39190;SDS011;24916;51.676;6.614;2023-04-19T02:41:03;8.52;;;6.53;;
39190;SDS011;24916;51.676;6.614;2023-04-19T02:43:30;8.13;;;6.57;;
39190;SDS011;24916;51.676;6.614;2023-04-19T02:45:55;8.27;;;6.55;;
39190;SDS011;24916;51.676;6.614;2023-04-19T02:48:20;9.02;;;6.38;;
39190;SDS011;24916;51.676;6.614;2023-04-19T02:50:46;7.68;;;6.15;;
39190;SDS011;24916;51.676;6.614;2023-04-19T02:53:11;8.07;;;5.70;;
39190;SDS011;24916;51.676;6.614;2023-04-19T02:55:36;10.30;;;6.05;;
39190;SDS011;24916;51.676;6.614;2023-04-19T02:58:01;7.82;;;6.22;;
39190;SDS011;24916;51.676;6.614;2023-04-19T03:00:27;7.55;;;5.13;;
39190;SDS011;24916;51.676;6.614;2023-04-19T03:02:52;9.02;;;5.80;;
39190;SDS011;24916;51.676;6.614;2023-04-19T03:05:17;7.28;;;5.20;;
39190;SDS011;24916;51.676;6.614;2023-04-19T03:07:42;8.77;;;5.07;;
39190;SDS011;24916;51.676;6.614;2023-04-19T03:10:08;7.47;;;5.25;;
39190;SDS011;24916;51.676;6.614;2023-04-19T03:12:33;6.93;;;5.03;;
39190;SDS011;24916;51.676;6.614;2023-04-19T03:14:58;7.32;;;5.53;;
39190;SDS011;24916;51.676;6.614;2023-04-19T03:17:23;7.57;;;4.70;;
39190;SDS011;24916;51.676;6.614;2023-04-19T03:19:49;6.15;;;4.72;;
39190;SDS011;24916;51.676;6.614;2023-04-19T03:22:14;9.80;;;4.80;;
39190;SDS011;24916;51.676;6.614;2023-04-19T03:24:39;8.48;;;4.78;;
39190;SDS011;24916;51.676;6.614;2023-04-19T03:27:04;7.20;;;4.32;;
39190;SDS011;24916;51.676;6.614;2023-04-19T03:29:30;7.07;;;5.03;;
39190;SDS011;24916;51.676;6.614;2023-04-19T03:31:55;7.13;;;4.72;;
39190;SDS011;24916;51.676;6.614;2023-04-19T03:34:20;8.27;;;4.30;;
39190;SDS011;24916;51.676;6.614;2023-04-19T03:36:46;9.25;;;4.82;;
39190;SDS011;24916;51.676;6.614;2023-04-19T03:39:11;7.35;;;4.97;;
39190;SDS011;24916;51.676;6.614;2023-04-19T03:41:36;6.78;;;4.63;;
39190;SDS011;24916;51.676;6.614;2023-04-19T03:44:01;5.15;;;4.40;;
39190;SDS011;24916;51.676;6.614;2023-04-19T03:46:27;9.07;;;5.03;;
39190;SDS011;24916;51.676;6.614;2023-04-19T03:48:55;8.52;;;4.65;;
39190;SDS011;24916;51.676;6.614;2023-04-19T03:51:20;7.00;;;4.82;;
39190;SDS011;24916;51.676;6.614;2023-04-19T03:53:46;5.65;;;4.78;;
39190;SDS011;24916;51.676;6.614;2023-04-19T03:56:11;6.70;;;4.55;;
39190;SDS011;24916;51.676;6.614;2023-04-19T03:58:36;7.15;;;4.70;;
39190;SDS011;24916;51.676;6.614;2023-04-19T04:01:01;6.55;;;4.70;;
39190;SDS011;24916;51.676;6.614;2023-04-19T04:03:27;6.40;;;4.97;;
39190;SDS011;24916;51.676;6.614;2023-04-19T04:05:52;8.70;;;4.53;;
39190;SDS011;24916;51.676;6.614;2023-04-19T04:08:17;7.18;;;4.47;;
39190;SDS011;24916;51.676;6.614;2023-04-19T04:10:42;6.32;;;4.45;;
39190;SDS011;24916;51.676;6.614;2023-04-19T04:13:07;6.28;;;4.35;;
39190;SDS011;24916;51.676;6.614;2023-04-19T04:15:33;11.00;;;5.18;;
39190;SDS011;24916;51.676;6.614;2023-04-19T04:17:58;5.47;;;4.45;;
39190;SDS011;24916;51.676;6.614;2023-04-19T04:20:23;5.45;;;4.15;;
39190;SDS011;24916;51.676;6.614;2023-04-19T04:22:48;8.30;;;4.30;;
39190;SDS011;24916;51.676;6.614;2023-04-19T04:25:14;12.43;;;4.78;;
39190;SDS011;24916;51.676;6.614;2023-04-19T04:27:42;6.70;;;4.93;;
39190;SDS011;24916;51.676;6.614;2023-04-19T04:30:08;5.60;;;4.57;;
39190;SDS011;24916;51.676;6.614;2023-04-19T04:32:33;7.90;;;4.45;;
39190;SDS011;24916;51.676;6.614;2023-04-19T04:35:02;8.25;;;5.18;;
39190;SDS011;24916;51.676;6.614;2023-04-19T04:37:27;5.63;;;5.03;;
39190;SDS011;24916;51.676;6.614;2023-04-19T04:39:55;5.80;;;4.55;;
39190;SDS011;24916;51.676;6.614;2023-04-19T04:42:20;7.07;;;5.18;;
39190;SDS011;24916;51.676;6.614;2023-04-19T04:44:45;6.65;;;4.85;;
39190;SDS011;24916;51.676;6.614;2023-04-19T04:47:11;6.78;;;5.15;;
39190;SDS011;24916;51.676;6.614;2023-04-19T04:49:38;6.82;;;5.82;;
39190;SDS011;24916;51.676;6.614;2023-04-19T04:52:03;7.95;;;5.55;;
39190;SDS011;24916;51.676;6.614;2023-04-19T04:54:28;6.88;;;4.70;;
39190;SDS011;24916;51.676;6.614;2023-04-19T04:56:53;9.90;;;5.32;;
39190;SDS011;24916;51.676;6.614;2023-04-19T04:59:19;6.60;;;5.15;;
39190;SDS011;24916;51.676;6.614;2023-04-19T05:01:44;5.80;;;4.70;;
39190;SDS011;24916;51.676;6.614;2023-04-19T05:04:09;9.05;;;5.63;;
39190;SDS011;24916;51.676;6.614;2023-04-19T05:06:35;6.35;;;4.47;;
39190;SDS011;24916;51.676;6.614;2023-04-19T05:09:00;5.88;;;4.95;;
39190;SDS011;24916;51.676;6.614;2023-04-19T05:11:26;7.03;;;5.53;;
39190;SDS011;24916;51.676;6.614;2023-04-19T05:13:51;8.68;;;5.05;;
39190;SDS011;24916;51.676;6.614;2023-04-19T05:16:16;7.75;;;5.22;;
39190;SDS011;24916;51.676;6.614;2023-04-19T05:18:41;11.73;;;5.10;;
39190;SDS011;24916;51.676;6.614;2023-04-19T05:21:07;6.25;;;5.20;;
39190;SDS011;24916;51.676;6.614;2023-04-19T05:23:34;6.30;;;4.60;;
39190;SDS011;24916;51.676;6.614;2023-04-19T05:25:59;6.70;;;4.65;;
39190;SDS011;24916;51.676;6.614;2023-04-19T05:28:25;7.65;;;5.45;;
39190;SDS011;24916;51.676;6.614;2023-04-19T05:30:50;8.00;;;5.07;;
39190;SDS011;24916;51.676;6.614;2023-04-19T05:33:16;6.82;;;4.57;;
39190;SDS011;24916;51.676;6.614;2023-04-19T05:35:41;6.60;;;5.18;;
39190;SDS011;24916;51.676;6.614;2023-04-19T05:38:06;8.60;;;4.93;;
39190;SDS011;24916;51.676;6.614;2023-04-19T05:40:31;11.05;;;4.40;;
39190;SDS011;24916;51.676;6.614;2023-04-19T05:42:56;8.23;;;5.65;;
39190;SDS011;24916;51.676;6.614;2023-04-19T05:45:22;8.50;;;4.82;;
39190;SDS011;24916;51.676;6.614;2023-04-19T05:47:47;6.78;;;4.63;;
39190;SDS011;24916;51.676;6.614;2023-04-19T05:50:12;6.63;;;4.35;;
39190;SDS011;24916;51.676;6.614;2023-04-19T05:52:41;6.60;;;4.50;;
39190;SDS011;24916;51.676;6.614;2023-04-19T05:55:07;7.50;;;4.45;;
39190;SDS011;24916;51.676;6.614;2023-04-19T05:57:32;10.48;;;6.70;;
39190;SDS011;24916;51.676;6.614;2023-04-19T05:59:57;7.07;;;5.20;;
39190;SDS011;24916;51.676;6.614;2023-04-19T06:02:22;7.55;;;4.80;;
39190;SDS011;24916;51.676;6.614;2023-04-19T06:04:48;7.68;;;4.45;;
39190;SDS011;24916;51.676;6.614;2023-04-19T06:07:13;9.85;;;4.60;;
39190;SDS011;24916;51.676;6.614;2023-04-19T06:09:38;7.50;;;4.18;;
39190;SDS011;24916;51.676;6.614;2023-04-19T06:12:03;7.85;;;4.28;;
39190;SDS011;24916;51.676;6.614;2023-04-19T06:14:29;16.02;;;5.50;;
39190;SDS011;24916;51.676;6.614;2023-04-19T06:16:54;8.95;;;4.60;;
39190;SDS011;24916;51.676;6.614;2023-04-19T06:19:20;6.45;;;4.75;;
39190;SDS011;24916;51.676;6.614;2023-04-19T06:21:45;6.75;;;3.50;;
39190;SDS011;24916;51.676;6.614;2023-04-19T06:24:11;8.00;;;4.10;;
39190;SDS011;24916;51.676;6.614;2023-04-19T06:26:37;6.03;;;3.95;;
39190;SDS011;24916;51.676;6.614;2023-04-19T06:29:02;9.27;;;3.95;;
39190;SDS011;24916;51.676;6.614;2023-04-19T06:31:27;7.47;;;3.75;;
39190;SDS011;24916;51.676;6.614;2023-04-19T06:33:52;8.60;;;3.88;;
39190;SDS011;24916;51.676;6.614;2023-04-19T06:36:18;10.18;;;3.90;;
39190;SDS011;24916;51.676;6.614;2023-04-19T06:38:43;6.57;;;2.20;;
39190;SDS011;24916;51.676;6.614;2023-04-19T06:41:11;4.88;;;2.67;;
39190;SDS011;24916;51.676;6.614;2023-04-19T06:43:36;7.47;;;3.33;;
39190;SDS011;24916;51.676;6.614;2023-04-19T06:46:03;6.20;;;3.17;;
39190;SDS011;24916;51.676;6.614;2023-04-19T06:48:29;3.03;;;1.83;;
39190;SDS011;24916;51.676;6.614;2023-04-19T06:50:54;8.93;;;2.97;;
39190;SDS011;24916;51.676;6.614;2023-04-19T06:53:20;5.30;;;2.80;;
39190;SDS011;24916;51.676;6.614;2023-04-19T06:55:45;6.47;;;3.10;;
39190;SDS011;24916;51.676;6.614;2023-04-19T06:58:10;6.28;;;3.80;;
39190;SDS011;24916;51.676;6.614;2023-04-19T07:00:36;5.30;;;3.00;;
39190;SDS011;24916;51.676;6.614;2023-04-19T07:03:01;4.15;;;3.25;;
39190;SDS011;24916;51.676;6.614;2023-04-19T07:05:27;8.65;;;3.05;;
39190;SDS011;24916;51.676;6.614;2023-04-19T07:07:52;5.30;;;3.15;;
39190;SDS011;24916;51.676;6.614;2023-04-19T07:10:18;6.40;;;2.63;;
39190;SDS011;24916;51.676;6.614;2023-04-19T07:12:43;5.03;;;2.83;;
39190;SDS011;24916;51.676;6.614;2023-04-19T07:15:08;4.55;;;2.80;;
39190;SDS011;24916;51.676;6.614;2023-04-19T07:17:34;6.15;;;3.00;;
39190;SDS011;24916;51.676;6.614;2023-04-19T07:20:00;7.57;;;3.22;;
39190;SDS011;24916;51.676;6.614;2023-04-19T07:22:25;4.50;;;2.85;;
39190;SDS011;24916;51.676;6.614;2023-04-19T07:24:50;8.55;;;2.42;;
39190;SDS011;24916;51.676;6.614;2023-04-19T07:27:16;3.45;;;2.00;;
39190;SDS011;24916;51.676;6.614;2023-04-19T07:29:42;13.60;;;2.40;;
39190;SDS011;24916;51.676;6.614;2023-04-19T07:32:07;5.30;;;2.20;;
39190;SDS011;24916;51.676;6.614;2023-04-19T07:34:33;9.88;;;2.78;;
39190;SDS011;24916;51.676;6.614;2023-04-19T07:36:58;4.70;;;2.03;;
39190;SDS011;24916;51.676;6.614;2023-04-19T07:39:23;5.05;;;2.42;;
39190;SDS011;24916;51.676;6.614;2023-04-19T07:41:48;3.25;;;2.17;;
39190;SDS011;24916;51.676;6.614;2023-04-19T07:44:13;4.03;;;2.63;;
39190;SDS011;24916;51.676;6.614;2023-04-19T07:46:40;8.68;;;5.72;;
39190;SDS011;24916;51.676;6.614;2023-04-19T07:49:05;15.82;;;8.27;;
39190;SDS011;24916;51.676;6.614;2023-04-19T07:51:31;3.55;;;2.17;;
39190;SDS011;24916;51.676;6.614;2023-04-19T07:53:56;8.77;;;2.78;;
39190;SDS011;24916;51.676;6.614;2023-04-19T07:56:21;3.83;;;1.95;;
39190;SDS011;24916;51.676;6.614;2023-04-19T07:58:47;6.85;;;2.63;;
39190;SDS011;24916;51.676;6.614;2023-04-19T08:01:12;10.00;;;2.28;;
39190;SDS011;24916;51.676;6.614;2023-04-19T08:03:37;12.43;;;2.20;;
39190;SDS011;24916;51.676;6.614;2023-04-19T08:06:03;7.70;;;2.67;;
39190;SDS011;24916;51.676;6.614;2023-04-19T08:08:29;3.67;;;1.70;;
39190;SDS011;24916;51.676;6.614;2023-04-19T08:10:55;6.82;;;2.13;;
39190;SDS011;24916;51.676;6.614;2023-04-19T08:13:20;7.82;;;2.50;;
39190;SDS011;24916;51.676;6.614;2023-04-19T08:15:46;6.05;;;2.20;;
39190;SDS011;24916;51.676;6.614;2023-04-19T08:18:11;5.18;;;2.25;;
39190;SDS011;24916;51.676;6.614;2023-04-19T08:20:36;5.15;;;2.05;;
39190;SDS011;24916;51.676;6.614;2023-04-19T08:23:01;5.70;;;2.60;;
39190;SDS011;24916;51.676;6.614;2023-04-19T08:25:27;2.95;;;1.65;;
39190;SDS011;24916;51.676;6.614;2023-04-19T08:27:55;3.95;;;2.10;;
39190;SDS011;24916;51.676;6.614;2023-04-19T08:30:21;3.85;;;1.98;;
39190;SDS011;24916;51.676;6.614;2023-04-19T08:32:46;9.35;;;2.10;;
39190;SDS011;24916;51.676;6.614;2023-04-19T08:35:12;4.22;;;1.90;;
39190;SDS011;24916;51.676;6.614;2023-04-19T08:37:37;4.28;;;2.28;;
39190;SDS011;24916;51.676;6.614;2023-04-19T08:40:03;2.90;;;1.60;;
39190;SDS011;24916;51.676;6.614;2023-04-19T08:42:29;3.38;;;1.42;;
39190;SDS011;24916;51.676;6.614;2023-04-19T08:44:55;3.10;;;1.90;;
39190;SDS011;24916;51.676;6.614;2023-04-19T08:47:22;2.33;;;1.10;;
39190;SDS011;24916;51.676;6.614;2023-04-19T08:49:47;1.80;;;1.38;;
39190;SDS011;24916;51.676;6.614;2023-04-19T08:52:12;3.45;;;1.38;;
39190;SDS011;24916;51.676;6.614;2023-04-19T08:54:38;7.70;;;3.47;;
39190;SDS011;24916;51.676;6.614;2023-04-19T08:57:05;3.28;;;1.80;;
39190;SDS011;24916;51.676;6.614;2023-04-19T08:59:32;4.03;;;1.73;;
39190;SDS011;24916;51.676;6.614;2023-04-19T09:02:01;3.65;;;2.08;;
39190;SDS011;24916;51.676;6.614;2023-04-19T09:04:26;4.97;;;1.48;;
39190;SDS011;24916;51.676;6.614;2023-04-19T09:06:52;2.55;;;1.40;;
39190;SDS011;24916;51.676;6.614;2023-04-19T09:09:18;7.85;;;1.58;;
39190;SDS011;24916;51.676;6.614;2023-04-19T09:11:44;2.97;;;1.13;;
39190;SDS011;24916;51.676;6.614;2023-04-19T09:14:09;3.40;;;1.30;;
39190;SDS011;24916;51.676;6.614;2023-04-19T09:16:35;3.42;;;1.15;;
39190;SDS011;24916;51.676;6.614;2023-04-19T09:19:03;3.38;;;1.20;;
39190;SDS011;24916;51.676;6.614;2023-04-19T09:21:29;5.47;;;1.20;;
39190;SDS011;24916;51.676;6.614;2023-04-19T09:23:55;3.88;;;1.10;;
39190;SDS011;24916;51.676;6.614;2023-04-19T09:26:20;1.65;;;1.00;;
39190;SDS011;24916;51.676;6.614;2023-04-19T09:29:07;6.40;;;1.20;;
39190;SDS011;24916;51.676;6.614;2023-04-19T09:33:56;1.90;;;1.00;;
39190;SDS011;24916;51.676;6.614;2023-04-19T09:36:29;1.92;;;1.30;;
39190;SDS011;24916;51.676;6.614;2023-04-19T09:38:55;1.30;;;0.85;;
39190;SDS011;24916;51.676;6.614;2023-04-19T09:41:20;1.65;;;1.20;;
39190;SDS011;24916;51.676;6.614;2023-04-19T09:43:45;3.08;;;1.45;;
39190;SDS011;24916;51.676;6.614;2023-04-19T09:46:30;4.55;;;1.17;;
39190;SDS011;24916;51.676;6.614;2023-04-19T09:51:49;6.15;;;1.73;;
39190;SDS011;24916;51.676;6.614;2023-04-19T09:54:16;2.38;;;1.25;;
39190;SDS011;24916;51.676;6.614;2023-04-19T09:56:42;6.75;;;1.42;;
39190;SDS011;24916;51.676;6.614;2023-04-19T09:59:08;4.72;;;1.10;;
39190;SDS011;24916;51.676;6.614;2023-04-19T10:01:55;1.80;;;1.00;;
39190;SDS011;24916;51.676;6.614;2023-04-19T10:04:22;5.00;;;1.50;;
39190;SDS011;24916;51.676;6.614;2023-04-19T10:06:48;2.95;;;1.55;;
39190;SDS011;24916;51.676;6.614;2023-04-19T10:09:14;4.40;;;1.58;;
39190;SDS011;24916;51.676;6.614;2023-04-19T10:11:40;4.63;;;1.77;;
39190;SDS011;24916;51.676;6.614;2023-04-19T10:14:09;2.92;;;1.48;;
39190;SDS011;24916;51.676;6.614;2023-04-19T10:16:36;6.38;;;1.58;;
39190;SDS011;24916;51.676;6.614;2023-04-19T10:19:02;1.83;;;1.20;;
39190;SDS011;24916;51.676;6.614;2023-04-19T10:21:28;3.80;;;1.23;;
39190;SDS011;24916;51.676;6.614;2023-04-19T10:23:55;4.47;;;1.30;;
39190;SDS011;24916;51.676;6.614;2023-04-19T10:26:21;5.93;;;1.63;;
39190;SDS011;24916;51.676;6.614;2023-04-19T10:28:46;2.42;;;1.50;;
39190;SDS011;24916;51.676;6.614;2023-04-19T10:31:12;5.93;;;1.40;;
39190;SDS011;24916;51.676;6.614;2023-04-19T10:33:37;3.67;;;1.10;;
39190;SDS011;24916;51.676;6.614;2023-04-19T10:36:03;6.95;;;1.40;;
39190;SDS011;24916;51.676;6.614;2023-04-19T10:38:44;4.30;;;2.20;;
39190;SDS011;24916;51.676;6.614;2023-04-19T10:41:15;5.47;;;2.25;;
39190;SDS011;24916;51.676;6.614;2023-04-19T10:48:50;3.45;;;1.90;;
39190;SDS011;24916;51.676;6.614;2023-04-19T10:51:20;4.43;;;1.40;;
39190;SDS011;24916;51.676;6.614;2023-04-19T10:56:12;3.65;;;1.77;;
39190;SDS011;24916;51.676;6.614;2023-04-19T11:06:32;2.30;;;1.50;;
39190;SDS011;24916;51.676;6.614;2023-04-19T11:08:57;2.65;;;1.55;;
39190;SDS011;24916;51.676;6.614;2023-04-19T11:11:23;4.88;;;1.80;;
39190;SDS011;24916;51.676;6.614;2023-04-19T11:13:49;2.53;;;1.65;;
39190;SDS011;24916;51.676;6.614;2023-04-19T11:16:15;6.20;;;1.70;;
39190;SDS011;24916;51.676;6.614;2023-04-19T11:18:40;5.20;;;2.08;;
39190;SDS011;24916;51.676;6.614;2023-04-19T11:21:06;5.53;;;1.80;;
39190;SDS011;24916;51.676;6.614;2023-04-19T11:23:31;3.17;;;1.70;;
39190;SDS011;24916;51.676;6.614;2023-04-19T11:25:57;3.92;;;1.63;;
39190;SDS011;24916;51.676;6.614;2023-04-19T11:28:22;4.85;;;1.77;;
39190;SDS011;24916;51.676;6.614;2023-04-19T11:30:48;5.47;;;1.45;;
39190;SDS011;24916;51.676;6.614;2023-04-19T11:33:13;7.13;;;1.90;;
39190;SDS011;24916;51.676;6.614;2023-04-19T11:35:38;4.15;;;1.50;;
39190;SDS011;24916;51.676;6.614;2023-04-19T11:38:05;10.38;;;6.80;;
39190;SDS011;24916;51.676;6.614;2023-04-19T11:40:30;6.65;;;4.53;;
39190;SDS011;24916;51.676;6.614;2023-04-19T11:42:56;5.05;;;3.90;;
39190;SDS011;24916;51.676;6.614;2023-04-19T11:47:49;11.52;;;1.70;;
39190;SDS011;24916;51.676;6.614;2023-04-19T11:52:59;6.13;;;1.83;;
39190;SDS011;24916;51.676;6.614;2023-04-19T11:55:24;7.80;;;3.38;;
39190;SDS011;24916;51.676;6.614;2023-04-19T11:57:50;6.65;;;2.47;;
39190;SDS011;24916;51.676;6.614;2023-04-19T12:00:15;4.38;;;3.03;;
39190;SDS011;24916;51.676;6.614;2023-04-19T12:02:50;10.50;;;2.42;;
39190;SDS011;24916;51.676;6.614;2023-04-19T12:05:15;3.15;;;2.00;;
39190;SDS011;24916;51.676;6.614;2023-04-19T12:10:25;5.32;;;1.80;;
39190;SDS011;24916;51.676;6.614;2023-04-19T12:12:50;3.72;;;1.95;;
39190;SDS011;24916;51.676;6.614;2023-04-19T12:15:15;5.15;;;2.00;;
39190;SDS011;24916;51.676;6.614;2023-04-19T12:17:56;3.65;;;1.90;;
39190;SDS011;24916;51.676;6.614;2023-04-19T12:20:32;5.50;;;2.00;;
39190;SDS011;24916;51.676;6.614;2023-04-19T12:22:58;6.35;;;1.80;;
39190;SDS011;24916;51.676;6.614;2023-04-19T12:25:27;9.93;;;1.95;;
39190;SDS011;24916;51.676;6.614;2023-04-19T12:27:52;2.75;;;1.85;;
39190;SDS011;24916;51.676;6.614;2023-04-19T12:30:17;5.73;;;2.43;;
39190;SDS011;24916;51.676;6.614;2023-04-19T12:32:43;5.53;;;1.92;;
39190;SDS011;24916;51.676;6.614;2023-04-19T12:35:08;2.80;;;1.95;;
39190;SDS011;24916;51.676;6.614;2023-04-19T12:37:33;3.80;;;2.13;;
39190;SDS011;24916;51.676;6.614;2023-04-19T12:39:59;3.20;;;1.97;;
39190;SDS011;24916;51.676;6.614;2023-04-19T12:42:24;4.80;;;2.10;;
39190;SDS011;24916;51.676;6.614;2023-04-19T12:44:49;6.63;;;2.20;;
39190;SDS011;24916;51.676;6.614;2023-04-19T12:47:14;5.38;;;2.20;;
39190;SDS011;24916;51.676;6.614;2023-04-19T12:49:39;9.02;;;2.40;;
39190;SDS011;24916;51.676;6.614;2023-04-19T12:52:05;6.85;;;2.08;;
39190;SDS011;24916;51.676;6.614;2023-04-19T12:54:30;3.15;;;1.65;;
39190;SDS011;24916;51.676;6.614;2023-04-19T12:56:55;2.70;;;1.65;;
39190;SDS011;24916;51.676;6.614;2023-04-19T12:59:21;3.92;;;2.35;;
39190;SDS011;24916;51.676;6.614;2023-04-19T13:01:46;4.00;;;2.45;;
39190;SDS011;24916;51.676;6.614;2023-04-19T13:04:12;7.68;;;2.88;;
39190;SDS011;24916;51.676;6.614;2023-04-19T13:06:37;3.93;;;2.43;;
39190;SDS011;24916;51.676;6.614;2023-04-19T13:09:03;3.92;;;2.50;;
39190;SDS011;24916;51.676;6.614;2023-04-19T13:11:28;4.03;;;2.35;;
39190;SDS011;24916;51.676;6.614;2023-04-19T13:13:53;4.75;;;2.58;;
39190;SDS011;24916;51.676;6.614;2023-04-19T13:16:19;3.80;;;2.58;;
39190;SDS011;24916;51.676;6.614;2023-04-19T13:18:44;5.55;;;2.83;;
39190;SDS011;24916;51.676;6.614;2023-04-19T13:21:10;4.55;;;2.60;;
39190;SDS011;24916;51.676;6.614;2023-04-19T13:23:35;5.70;;;2.80;;
39190;SDS011;24916;51.676;6.614;2023-04-19T13:26:00;7.30;;;2.47;;
39190;SDS011;24916;51.676;6.614;2023-04-19T13:28:26;5.80;;;2.70;;
39190;SDS011;24916;51.676;6.614;2023-04-19T13:30:51;5.65;;;2.58;;
39190;SDS011;24916;51.676;6.614;2023-04-19T13:33:17;3.45;;;2.50;;
39190;SDS011;24916;51.676;6.614;2023-04-19T13:35:42;10.30;;;6.80;;
39190;SDS011;24916;51.676;6.614;2023-04-19T13:38:08;4.20;;;3.08;;
39190;SDS011;24916;51.676;6.614;2023-04-19T13:40:34;6.45;;;3.97;;
39190;SDS011;24916;51.676;6.614;2023-04-19T13:42:59;3.70;;;2.25;;
39190;SDS011;24916;51.676;6.614;2023-04-19T13:45:24;7.63;;;2.57;;
39190;SDS011;24916;51.676;6.614;2023-04-19T13:47:50;5.10;;;2.30;;
39190;SDS011;24916;51.676;6.614;2023-04-19T13:50:16;4.50;;;2.28;;
39190;SDS011;24916;51.676;6.614;2023-04-19T13:52:41;4.67;;;2.10;;
39190;SDS011;24916;51.676;6.614;2023-04-19T13:55:06;7.77;;;2.53;;
39190;SDS011;24916;51.676;6.614;2023-04-19T13:57:31;5.32;;;3.72;;
39190;SDS011;24916;51.676;6.614;2023-04-19T13:59:56;3.50;;;2.57;;
39190;SDS011;24916;51.676;6.614;2023-04-19T14:02:22;6.72;;;2.30;;
39190;SDS011;24916;51.676;6.614;2023-04-19T14:04:47;4.32;;;2.25;;
39190;SDS011;24916;51.676;6.614;2023-04-19T14:07:12;5.83;;;2.30;;
39190;SDS011;24916;51.676;6.614;2023-04-19T14:09:38;5.50;;;2.30;;
39190;SDS011;24916;51.676;6.614;2023-04-19T14:12:03;5.60;;;2.45;;
39190;SDS011;24916;51.676;6.614;2023-04-19T14:14:28;3.97;;;2.20;;
39190;SDS011;24916;51.676;6.614;2023-04-19T14:16:54;3.65;;;2.17;;
39190;SDS011;24916;51.676;6.614;2023-04-19T14:19:19;5.63;;;2.60;;
39190;SDS011;24916;51.676;6.614;2023-04-19T14:21:44;2.92;;;2.05;;
39190;SDS011;24916;51.676;6.614;2023-04-19T14:24:09;4.00;;;2.40;;
39190;SDS011;24916;51.676;6.614;2023-04-19T14:26:35;4.15;;;2.05;;
39190;SDS011;24916;51.676;6.614;2023-04-19T14:29:00;4.75;;;2.10;;
39190;SDS011;24916;51.676;6.614;2023-04-19T14:31:25;3.63;;;2.63;;
39190;SDS011;24916;51.676;6.614;2023-04-19T14:33:50;4.57;;;1.80;;
39190;SDS011;24916;51.676;6.614;2023-04-19T14:36:16;9.15;;;2.53;;
39190;SDS011;24916;51.676;6.614;2023-04-19T14:38:41;3.97;;;2.40;;
39190;SDS011;24916;51.676;6.614;2023-04-19T14:41:06;4.10;;;2.40;;
39190;SDS011;24916;51.676;6.614;2023-04-19T14:43:31;4.68;;;2.15;;
39190;SDS011;24916;51.676;6.614;2023-04-19T14:45:57;2.97;;;2.13;;
39190;SDS011;24916;51.676;6.614;2023-04-19T14:48:23;4.65;;;2.13;;
39190;SDS011;24916;51.676;6.614;2023-04-19T14:50:48;6.75;;;2.45;;
39190;SDS011;24916;51.676;6.614;2023-04-19T14:53:13;6.00;;;2.10;;
39190;SDS011;24916;51.676;6.614;2023-04-19T14:55:38;2.83;;;1.75;;
39190;SDS011;24916;51.676;6.614;2023-04-19T14:58:04;8.40;;;2.72;;
39190;SDS011;24916;51.676;6.614;2023-04-19T15:00:29;2.47;;;2.00;;
39190;SDS011;24916;51.676;6.614;2023-04-19T15:02:55;6.32;;;2.65;;